Time;durP1;ratioP1;P1;durP2;ratioP2;P2;SDS_P1;SDS_P2;PMS_P1;PMS_P2;Temp;Humidity;BMP_temperature;BMP_pressure;BME280_temperature;BME280_humidity;BME280_pressure;Samples;Min_cycle;Max_cycle;Signal;HPM_P1;HPM_P2
2022/07/17 00:00:00;;;;;;;3.22;2.33;;;14.00;99.90;;;;;;5068571;28;20394;-64
2022/07/17 00:02:26;;;;;;;6.07;2.60;;;14.00;99.90;;;;;;5050230;28;20078;-65
2022/07/17 00:04:51;;;;;;;8.27;2.30;;;14.00;99.90;;;;;;5053226;28;20029;-65
2022/07/17 00:07:17;;;;;;;7.72;2.70;;;14.00;99.90;;;;;;5049631;28;20029;-65
2022/07/17 00:09:43;;;;;;;5.95;2.38;;;14.00;99.90;;;;;;5061910;28;20029;-65
2022/07/17 00:12:08;;;;;;;9.85;2.67;;;13.90;99.90;;;;;;5049975;28;20028;-65
2022/07/17 00:14:34;;;;;;;10.85;3.05;;;14.00;99.90;;;;;;5047478;28;20037;-65
2022/07/17 00:17:00;;;;;;;8.13;2.75;;;13.90;99.90;;;;;;5051725;28;20037;-65
2022/07/17 00:19:25;;;;;;;4.78;2.40;;;13.90;99.90;;;;;;5049793;28;20458;-65
2022/07/17 00:21:51;;;;;;;10.18;2.88;;;13.80;99.90;;;;;;5060469;28;20036;-65
2022/07/17 00:24:19;;;;;;;4.13;2.63;;;13.80;99.90;;;;;;5056051;28;20033;-65
2022/07/17 00:26:47;;;;;;;4.93;2.40;;;13.70;99.90;;;;;;5047196;28;20051;-65
2022/07/17 00:29:12;;;;;;;8.50;3.08;;;13.50;99.90;;;;;;5049450;28;20025;-65
2022/07/17 00:31:38;;;;;;;7.15;2.47;;;13.50;99.90;;;;;;5057849;28;20082;-65
2022/07/17 00:34:03;;;;;;;12.15;3.13;;;13.40;99.90;;;;;;5049207;28;20036;-65
2022/07/17 00:36:29;;;;;;;9.38;2.63;;;13.40;99.90;;;;;;5050393;28;20116;-65
2022/07/17 00:38:54;;;;;;;4.75;2.67;;;13.30;99.90;;;;;;5049902;28;20033;-65
2022/07/17 00:41:20;;;;;;;6.88;3.10;;;13.30;99.90;;;;;;5055924;28;20112;-65
2022/07/17 00:43:46;;;;;;;10.35;3.15;;;13.20;99.90;;;;;;5047933;28;20060;-65
2022/07/17 00:46:12;;;;;;;9.85;3.00;;;13.20;99.90;;;;;;5079704;28;20025;-65
2022/07/17 00:48:38;;;;;;;4.68;2.35;;;13.20;99.90;;;;;;5055399;28;20037;-64
2022/07/17 00:51:03;;;;;;;10.57;2.78;;;13.10;99.90;;;;;;5049523;28;20021;-65
2022/07/17 00:53:33;;;;;;;6.53;2.85;;;13.10;99.90;;;;;;5049124;28;20060;-65
2022/07/17 00:56:02;;;;;;;4.40;2.55;;;13.10;99.90;;;;;;5063624;28;20033;-65
2022/07/17 00:58:29;;;;;;;13.18;3.08;;;13.00;99.90;;;;;;5060961;28;20491;-65
2022/07/17 01:00:55;;;;;;;7.43;2.25;;;13.00;99.90;;;;;;5047893;28;20104;-65
2022/07/17 01:03:22;;;;;;;16.80;3.28;;;12.90;99.90;;;;;;5042342;28;20081;-64
2022/07/17 01:05:48;;;;;;;9.90;3.00;;;12.90;99.90;;;;;;5051875;28;20036;-65
2022/07/17 01:08:14;;;;;;;10.82;2.80;;;12.80;99.90;;;;;;5046977;28;20029;-65
2022/07/17 01:10:40;;;;;;;7.05;3.05;;;12.70;99.90;;;;;;5049606;28;20036;-65
2022/07/17 01:13:06;;;;;;;13.60;3.10;;;12.80;99.90;;;;;;5060233;28;20530;-65
2022/07/17 01:15:34;;;;;;;8.57;3.15;;;12.70;99.90;;;;;;5054713;28;20037;-65
2022/07/17 01:18:04;;;;;;;15.23;3.30;;;12.70;99.90;;;;;;5063968;28;20025;-64
2022/07/17 01:20:30;;;;;;;6.20;2.65;;;12.70;99.90;;;;;;5056063;28;20467;-64
2022/07/17 01:22:57;;;;;;;4.97;2.65;;;12.70;99.90;;;;;;5048350;28;20032;-64
2022/07/17 01:25:23;;;;;;;10.85;3.65;;;12.60;99.90;;;;;;5049240;28;20052;-65
2022/07/17 01:27:49;;;;;;;9.73;3.08;;;12.70;99.90;;;;;;5053107;28;20479;-65
2022/07/17 01:30:15;;;;;;;9.02;2.83;;;12.60;99.90;;;;;;5050050;28;20091;-65
2022/07/17 01:32:41;;;;;;;8.57;3.10;;;12.50;99.90;;;;;;5050031;28;20435;-64
2022/07/17 01:35:09;;;;;;;5.60;2.80;;;12.40;99.90;;;;;;5048711;28;20086;-65
2022/07/17 01:37:35;;;;;;;8.00;2.63;;;12.40;99.90;;;;;;5049622;28;20029;-65
2022/07/17 01:40:01;;;;;;;6.82;3.30;;;12.40;99.90;;;;;;5051477;28;20025;-65
2022/07/17 01:42:27;;;;;;;6.78;2.72;;;12.40;99.90;;;;;;5051530;28;20668;-65
2022/07/17 01:44:54;;;;;;;6.72;3.22;;;12.40;99.90;;;;;;5057156;28;20626;-64
2022/07/17 01:47:20;;;;;;;9.52;2.75;;;12.40;99.90;;;;;;5061227;28;20555;-64
2022/07/17 01:49:48;;;;;;;8.95;2.85;;;12.40;99.90;;;;;;5052240;28;20104;-65
2022/07/17 01:52:14;;;;;;;8.25;2.90;;;12.40;99.90;;;;;;5059005;28;20025;-64
2022/07/17 01:54:40;;;;;;;20.25;3.35;;;12.40;99.90;;;;;;5057934;28;20036;-65
2022/07/17 01:57:06;;;;;;;6.97;2.78;;;12.40;99.90;;;;;;5071134;28;20103;-66
2022/07/17 01:59:31;;;;;;;9.13;2.58;;;12.40;99.90;;;;;;5052061;28;20120;-66
2022/07/17 02:01:57;;;;;;;5.78;2.53;;;12.30;99.90;;;;;;5054927;28;20471;-66
2022/07/17 02:04:23;;;;;;;8.90;2.70;;;12.20;99.90;;;;;;5054942;28;20036;-66
2022/07/17 02:06:48;;;;;;;4.65;2.42;;;12.30;99.90;;;;;;5057158;28;20421;-65
2022/07/17 02:09:14;;;;;;;8.85;2.63;;;12.20;99.90;;;;;;5058215;28;20036;-66
2022/07/17 02:11:39;;;;;;;10.50;2.85;;;12.20;99.90;;;;;;5058365;28;20437;-66
2022/07/17 02:14:05;;;;;;;8.63;2.78;;;12.20;99.90;;;;;;5055117;28;20017;-66
2022/07/17 02:16:30;;;;;;;8.75;2.80;;;12.20;99.90;;;;;;5054575;28;20078;-66
2022/07/17 02:18:56;;;;;;;7.82;2.85;;;12.10;99.90;;;;;;5064606;28;20024;-65
2022/07/17 02:21:21;;;;;;;7.35;2.97;;;12.10;99.90;;;;;;5062416;28;20104;-65
2022/07/17 02:23:47;;;;;;;6.28;3.10;;;12.10;99.90;;;;;;5057318;28;20468;-65
2022/07/17 02:26:12;;;;;;;10.27;2.60;;;12.10;99.90;;;;;;5059741;28;20021;-66
2022/07/17 02:28:38;;;;;;;5.40;2.83;;;12.00;99.90;;;;;;5054636;28;20430;-66
2022/07/17 02:31:04;;;;;;;8.60;3.15;;;12.00;99.90;;;;;;5056895;28;20036;-65
2022/07/17 02:33:29;;;;;;;9.10;2.85;;;12.00;99.90;;;;;;5060958;28;20479;-65
2022/07/17 02:35:55;;;;;;;9.48;2.78;;;12.00;99.90;;;;;;5054337;28;20539;-65
2022/07/17 02:38:20;;;;;;;9.90;2.65;;;11.90;99.90;;;;;;5057710;28;20107;-66
2022/07/17 02:40:46;;;;;;;14.73;2.95;;;11.80;99.90;;;;;;5055864;28;20025;-65
2022/07/17 02:43:11;;;;;;;7.85;2.70;;;11.80;99.90;;;;;;5057473;28;20052;-65
2022/07/17 02:45:37;;;;;;;6.72;3.00;;;11.80;99.90;;;;;;5057396;28;20079;-66
2022/07/17 02:48:03;;;;;;;7.05;2.90;;;11.80;99.90;;;;;;5058554;28;20021;-65
2022/07/17 02:50:28;;;;;;;6.85;2.75;;;11.80;99.90;;;;;;5061083;28;20044;-66
2022/07/17 02:52:54;;;;;;;12.30;2.45;;;11.80;99.90;;;;;;5052550;28;20033;-65
2022/07/17 02:55:20;;;;;;;12.80;2.65;;;11.80;99.90;;;;;;5059484;28;20025;-66
2022/07/17 02:57:48;;;;;;;9.45;4.13;;;11.70;99.90;;;;;;5060560;28;20131;-65
2022/07/17 03:00:16;;;;;;;10.82;3.25;;;11.70;99.90;;;;;;5050840;28;20169;-65
2022/07/17 03:02:44;;;;;;;11.02;3.22;;;11.70;99.90;;;;;;5060472;28;20032;-65
2022/07/17 03:05:10;;;;;;;14.98;2.70;;;11.70;99.90;;;;;;5051500;28;20037;-64
2022/07/17 03:07:36;;;;;;;4.22;2.58;;;11.70;99.90;;;;;;5058472;28;20036;-65
2022/07/17 03:10:02;;;;;;;7.53;2.50;;;11.70;99.90;;;;;;5063495;28;20033;-65
2022/07/17 03:12:28;;;;;;;18.45;3.80;;;11.60;99.90;;;;;;5053106;28;20380;-65
2022/07/17 03:14:53;;;;;;;6.57;2.55;;;11.50;99.90;;;;;;5051482;28;20040;-65
2022/07/17 03:17:19;;;;;;;5.05;2.85;;;11.50;99.90;;;;;;5050545;28;20550;-65
2022/07/17 03:19:44;;;;;;;4.75;3.20;;;11.50;99.90;;;;;;5052930;28;20032;-65
2022/07/17 03:22:10;;;;;;;6.65;2.90;;;11.40;99.90;;;;;;5049853;28;20384;-65
2022/07/17 03:24:35;;;;;;;4.78;2.65;;;11.40;99.90;;;;;;5055033;28;20025;-64
2022/07/17 03:27:01;;;;;;;5.55;2.75;;;11.40;99.90;;;;;;5062015;28;20025;-64
2022/07/17 03:29:27;;;;;;;6.80;2.85;;;11.50;99.90;;;;;;5049593;28;20114;-65
2022/07/17 03:31:53;;;;;;;6.50;3.40;;;11.40;99.90;;;;;;5049015;28;20029;-65
2022/07/17 03:34:18;;;;;;;5.95;2.90;;;11.40;99.90;;;;;;5052541;28;20503;-65
2022/07/17 03:36:44;;;;;;;4.25;2.70;;;11.50;99.90;;;;;;5050696;28;20550;-64
2022/07/17 03:39:09;;;;;;;4.72;2.80;;;11.50;99.90;;;;;;5058361;28;20025;-64
2022/07/17 03:41:35;;;;;;;4.97;2.88;;;11.40;99.90;;;;;;5054368;28;20033;-64
2022/07/17 03:44:01;;;;;;;13.52;2.85;;;11.40;99.90;;;;;;5050276;28;20109;-64
2022/07/17 03:46:27;;;;;;;14.15;3.13;;;11.30;99.90;;;;;;5049441;28;20029;-65
2022/07/17 03:48:52;;;;;;;11.50;3.75;;;11.30;99.90;;;;;;5051370;28;20033;-65
2022/07/17 03:51:18;;;;;;;9.73;3.65;;;11.30;99.90;;;;;;5056768;28;20032;-65
2022/07/17 03:53:44;;;;;;;5.00;2.67;;;11.30;99.90;;;;;;5060950;28;20032;-65
2022/07/17 03:56:09;;;;;;;7.88;2.75;;;11.20;99.90;;;;;;5049293;28;20449;-65
2022/07/17 03:58:35;;;;;;;5.53;3.13;;;11.20;99.90;;;;;;5048707;28;20043;-65
2022/07/17 04:01:01;;;;;;;4.78;3.15;;;11.30;99.90;;;;;;5055631;28;20047;-65
2022/07/17 04:03:27;;;;;;;5.32;3.33;;;11.20;99.90;;;;;;5048746;28;20029;-65
2022/07/17 04:05:52;;;;;;;5.43;2.70;;;11.20;99.90;;;;;;5051373;28;20534;-65
2022/07/17 04:08:18;;;;;;;4.40;2.97;;;11.20;99.90;;;;;;5054449;28;20086;-65
2022/07/17 04:10:44;;;;;;;12.75;3.17;;;11.20;99.90;;;;;;5052873;28;20032;-65
2022/07/17 04:13:10;;;;;;;9.30;3.00;;;11.30;99.90;;;;;;5060118;28;20033;-64
2022/07/17 04:18:22;;;;;;;7.35;3.22;;;11.20;99.90;;;;;;5062403;28;20035;-65
2022/07/17 04:20:48;;;;;;;7.22;3.10;;;11.30;99.90;;;;;;5053735;28;20029;-65
2022/07/17 04:23:14;;;;;;;8.73;3.42;;;11.40;99.90;;;;;;5048974;28;20029;-65
2022/07/17 04:25:40;;;;;;;8.48;3.65;;;11.40;99.90;;;;;;5047587;28;20051;-65
2022/07/17 04:28:06;;;;;;;7.97;3.22;;;11.40;99.90;;;;;;5051483;28;20025;-65
2022/07/17 04:30:32;;;;;;;5.47;2.92;;;11.40;99.90;;;;;;5044590;28;20016;-64
2022/07/17 04:32:58;;;;;;;8.88;2.88;;;11.50;99.90;;;;;;5057293;28;20459;-64
2022/07/17 04:35:23;;;;;;;10.75;3.42;;;11.50;99.90;;;;;;5053778;28;20099;-65
2022/07/17 04:37:49;;;;;;;10.88;3.55;;;11.50;99.90;;;;;;5063863;28;20031;-65
2022/07/17 04:40:14;;;;;;;6.97;3.00;;;11.50;99.90;;;;;;5048153;28;20063;-65
2022/07/17 04:42:40;;;;;;;8.98;3.45;;;11.50;99.90;;;;;;5058225;28;20491;-65
2022/07/17 04:45:06;;;;;;;5.57;3.30;;;11.60;99.90;;;;;;5050669;28;20036;-65
2022/07/17 04:47:33;;;;;;;10.32;3.35;;;11.60;99.90;;;;;;5049743;28;20044;-64
2022/07/17 04:49:58;;;;;;;6.32;4.05;;;11.70;99.90;;;;;;5050321;28;20108;-65
2022/07/17 04:52:24;;;;;;;7.00;3.55;;;11.70;99.90;;;;;;5048837;28;20115;-65
2022/07/17 04:54:49;;;;;;;8.52;3.35;;;11.90;99.90;;;;;;5048603;28;20499;-65
2022/07/17 04:57:15;;;;;;;9.60;3.53;;;11.90;99.90;;;;;;5048943;28;20491;-65
2022/07/17 04:59:40;;;;;;;7.68;3.17;;;12.00;99.90;;;;;;5052066;28;20450;-65
2022/07/17 05:02:07;;;;;;;5.07;3.53;;;12.10;99.90;;;;;;5042215;28;20056;-65
2022/07/17 05:04:32;;;;;;;5.75;3.67;;;12.20;99.90;;;;;;5051948;28;20406;-65
2022/07/17 05:06:58;;;;;;;10.52;4.38;;;12.30;99.90;;;;;;5050607;28;20051;-65
2022/07/17 05:09:23;;;;;;;6.20;3.75;;;12.40;99.90;;;;;;5047864;28;20789;-64
2022/07/17 05:11:49;;;;;;;11.23;3.63;;;12.50;99.90;;;;;;5049238;28;20036;-65
2022/07/17 05:14:14;;;;;;;6.55;3.67;;;12.50;99.90;;;;;;5050237;28;20049;-64
2022/07/17 05:16:40;;;;;;;6.95;3.95;;;12.60;99.90;;;;;;5056888;28;20033;-65
2022/07/17 05:19:05;;;;;;;7.78;3.67;;;12.60;99.90;;;;;;5060430;28;20066;-65
2022/07/17 05:21:31;;;;;;;9.00;4.10;;;12.70;99.90;;;;;;5052608;28;20106;-65
2022/07/17 05:23:57;;;;;;;11.73;4.53;;;12.80;99.90;;;;;;5052229;28;20475;-65
2022/07/17 05:26:23;;;;;;;10.27;3.88;;;12.90;99.90;;;;;;5063774;28;20535;-65
2022/07/17 05:28:49;;;;;;;9.35;3.95;;;12.90;99.90;;;;;;5064912;28;20521;-65
2022/07/17 05:31:14;;;;;;;7.00;3.20;;;13.00;99.90;;;;;;5057888;28;20064;-65
2022/07/17 05:33:40;;;;;;;6.03;3.47;;;13.10;99.90;;;;;;5053238;28;20526;-65
2022/07/17 05:36:05;;;;;;;8.20;4.13;;;13.10;99.90;;;;;;5052832;28;20029;-65
2022/07/17 05:38:31;;;;;;;12.27;3.85;;;13.20;99.90;;;;;;5050268;28;20029;-65
2022/07/17 05:40:57;;;;;;;7.30;3.08;;;13.30;99.90;;;;;;5051686;28;20032;-65
2022/07/17 05:43:22;;;;;;;11.73;4.03;;;13.30;99.90;;;;;;5050869;28;20020;-65
2022/07/17 05:45:48;;;;;;;14.65;4.28;;;13.40;99.90;;;;;;5050858;28;20511;-65
2022/07/17 05:48:13;;;;;;;13.57;3.60;;;13.40;99.90;;;;;;5059783;28;20506;-65
2022/07/17 05:50:39;;;;;;;9.20;3.10;;;13.50;99.90;;;;;;5058019;28;20419;-65
2022/07/17 05:53:04;;;;;;;15.05;4.03;;;13.50;99.90;;;;;;5056706;28;20025;-65
2022/07/17 05:55:30;;;;;;;6.03;3.55;;;13.60;99.90;;;;;;5050607;28;20067;-64
2022/07/17 05:57:56;;;;;;;9.75;4.45;;;13.70;99.90;;;;;;5057679;28;20495;-65
2022/07/17 06:00:22;;;;;;;6.70;3.72;;;13.70;99.90;;;;;;5045209;28;20654;-65
2022/07/17 06:02:47;;;;;;;9.55;3.50;;;13.80;99.90;;;;;;5052500;28;20100;-65
2022/07/17 06:05:13;;;;;;;8.80;3.97;;;13.90;99.90;;;;;;5046790;28;20079;-64
2022/07/17 06:07:39;;;;;;;7.95;3.45;;;14.00;99.90;;;;;;5050643;28;20028;-65
2022/07/17 06:10:05;;;;;;;10.27;3.92;;;14.00;99.90;;;;;;5055638;28;20391;-64
2022/07/17 06:12:31;;;;;;;12.18;4.25;;;14.10;99.90;;;;;;5051953;28;20542;-65
2022/07/17 06:14:56;;;;;;;10.00;4.95;;;14.10;99.90;;;;;;5050017;28;20108;-64
2022/07/17 06:17:22;;;;;;;11.30;4.18;;;14.20;99.90;;;;;;5054873;28;20260;-64
2022/07/17 06:19:51;;;;;;;14.35;3.97;;;14.30;99.90;;;;;;5060767;28;20114;-65
2022/07/17 06:22:19;;;;;;;10.93;4.38;;;14.40;99.90;;;;;;5057507;28;20033;-64
2022/07/17 06:24:45;;;;;;;11.02;5.25;;;14.50;99.90;;;;;;5052880;28;20028;-65
2022/07/17 06:27:10;;;;;;;7.03;5.22;;;14.50;99.90;;;;;;5058252;28;20029;-64
2022/07/17 06:29:36;;;;;;;9.95;5.57;;;14.60;99.90;;;;;;5072663;28;20032;-64
2022/07/17 06:32:01;;;;;;;8.02;4.68;;;14.70;99.90;;;;;;5051210;28;20407;-64
2022/07/17 06:34:27;;;;;;;9.45;5.20;;;14.70;99.90;;;;;;5054422;28;20068;-64
2022/07/17 06:36:52;;;;;;;13.60;3.90;;;14.80;99.90;;;;;;5057258;28;20470;-64
2022/07/17 06:39:18;;;;;;;6.97;3.95;;;14.90;99.90;;;;;;5052974;28;20522;-64
2022/07/17 06:41:43;;;;;;;5.80;3.90;;;15.00;99.90;;;;;;5050894;28;20057;-65
2022/07/17 06:44:09;;;;;;;10.40;3.40;;;15.00;99.90;;;;;;5055348;28;20029;-65
2022/07/17 06:46:34;;;;;;;14.98;4.68;;;15.10;99.90;;;;;;5060655;28;20029;-65
2022/07/17 06:49:00;;;;;;;5.72;3.17;;;15.20;99.90;;;;;;5052563;28;20021;-65
2022/07/17 06:51:25;;;;;;;8.40;3.45;;;15.20;99.90;;;;;;5052624;28;20029;-64
2022/07/17 06:53:51;;;;;;;11.02;4.25;;;15.30;99.90;;;;;;5060280;28;20029;-65
2022/07/17 06:56:16;;;;;;;7.85;3.67;;;15.40;99.90;;;;;;5049704;28;20041;-64
2022/07/17 06:58:42;;;;;;;11.32;3.65;;;15.50;99.90;;;;;;5049098;28;20178;-64
2022/07/17 07:01:07;;;;;;;8.18;3.70;;;15.60;99.90;;;;;;5052519;28;20041;-64
2022/07/17 07:03:33;;;;;;;13.05;3.83;;;15.70;99.90;;;;;;5052740;28;20097;-65
2022/07/17 07:05:59;;;;;;;9.20;3.35;;;15.80;99.90;;;;;;5048605;28;20548;-64
2022/07/17 07:08:25;;;;;;;5.07;3.08;;;15.90;99.90;;;;;;5040682;28;20025;-65
2022/07/17 07:10:51;;;;;;;8.00;3.63;;;15.90;99.90;;;;;;5052313;28;20025;-65
2022/07/17 07:13:16;;;;;;;8.65;3.85;;;16.10;99.90;;;;;;5048230;28;20021;-65
2022/07/17 07:15:42;;;;;;;12.02;3.70;;;16.10;99.90;;;;;;5047067;28;21880;-65
2022/07/17 07:18:08;;;;;;;8.77;3.90;;;16.20;99.90;;;;;;5048251;28;20025;-65
2022/07/17 07:20:34;;;;;;;14.82;4.18;;;16.40;99.90;;;;;;5045027;28;20040;-65
2022/07/17 07:23:00;;;;;;;9.80;3.83;;;16.50;99.90;;;;;;5054134;28;20024;-65
2022/07/17 07:25:25;;;;;;;6.90;3.80;;;16.60;99.90;;;;;;5053806;28;20036;-65
2022/07/17 07:27:51;;;;;;;7.72;3.42;;;16.70;99.90;;;;;;5053218;28;20479;-65
2022/07/17 07:30:16;;;;;;;9.07;3.58;;;16.80;99.90;;;;;;5048313;28;20562;-65
2022/07/17 07:32:42;;;;;;;8.13;3.40;;;16.90;99.90;;;;;;5048783;28;20029;-64
2022/07/17 07:35:08;;;;;;;6.03;3.17;;;17.00;99.90;;;;;;5050437;28;20449;-65
2022/07/17 07:37:34;;;;;;;8.90;3.20;;;17.00;99.90;;;;;;5047423;28;20021;-63
2022/07/17 07:39:59;;;;;;;12.07;2.95;;;17.10;99.90;;;;;;5050498;28;20051;-63
2022/07/17 07:42:26;;;;;;;7.18;3.08;;;17.20;99.90;;;;;;5051520;28;20027;-64
2022/07/17 07:44:52;;;;;;;7.15;3.33;;;17.30;99.90;;;;;;5055352;28;20364;-64
2022/07/17 07:47:17;;;;;;;6.53;2.63;;;17.30;99.90;;;;;;5052643;28;20048;-64
2022/07/17 07:49:43;;;;;;;12.95;3.10;;;17.50;99.90;;;;;;5051118;28;20031;-63
2022/07/17 07:52:09;;;;;;;6.60;3.03;;;17.60;99.90;;;;;;5051797;28;20029;-64
2022/07/17 07:54:34;;;;;;;10.70;2.50;;;17.70;99.90;;;;;;5052473;28;20025;-64
2022/07/17 07:57:00;;;;;;;6.80;3.10;;;17.80;99.90;;;;;;5050793;28;20077;-64
2022/07/17 07:59:26;;;;;;;9.75;3.30;;;17.90;99.90;;;;;;5051751;28;20061;-64
2022/07/17 08:01:51;;;;;;;13.68;3.33;;;17.90;99.90;;;;;;5054754;28;20998;-64
2022/07/17 08:04:17;;;;;;;5.75;3.30;;;18.00;99.90;;;;;;5049800;28;20112;-64
2022/07/17 08:06:43;;;;;;;4.82;2.72;;;18.20;99.90;;;;;;5047668;28;20493;-64
2022/07/17 08:09:08;;;;;;;8.25;3.63;;;18.20;99.90;;;;;;5048217;28;20036;-63
2022/07/17 08:11:34;;;;;;;9.13;3.50;;;18.30;99.90;;;;;;5052800;28;20032;-65
2022/07/17 08:13:59;;;;;;;10.98;3.67;;;18.30;99.90;;;;;;5055576;28;20040;-64
2022/07/17 08:16:25;;;;;;;9.35;3.50;;;18.40;99.90;;;;;;5051467;28;20020;-64
2022/07/17 08:18:50;;;;;;;12.77;3.30;;;18.50;99.90;;;;;;5055734;28;20028;-64
2022/07/17 08:21:16;;;;;;;8.35;2.63;;;18.60;99.90;;;;;;5048811;28;20032;-64
2022/07/17 08:23:42;;;;;;;4.72;2.78;;;18.70;99.90;;;;;;5050256;28;20025;-65
2022/07/17 08:26:08;;;;;;;7.30;3.20;;;18.80;99.90;;;;;;5045137;28;20017;-64
2022/07/17 08:28:33;;;;;;;5.13;2.38;;;18.90;99.90;;;;;;5053033;28;20063;-65
2022/07/17 08:30:59;;;;;;;6.80;1.83;;;18.90;99.90;;;;;;5049039;28;20513;-64
2022/07/17 08:33:24;;;;;;;6.50;2.08;;;19.00;99.90;;;;;;5045787;28;20028;-64
2022/07/17 08:35:50;;;;;;;6.65;1.90;;;19.20;99.90;;;;;;5043518;28;20040;-64
2022/07/17 08:38:16;;;;;;;5.32;2.30;;;19.30;99.90;;;;;;5047188;28;20136;-65
2022/07/17 08:40:43;;;;;;;5.32;2.42;;;19.40;99.90;;;;;;5048820;28;21752;-65
2022/07/17 08:43:09;;;;;;;4.03;1.85;;;19.50;99.90;;;;;;5049540;28;20026;-65
2022/07/17 08:45:38;;;;;;;4.38;2.22;;;19.60;99.90;;;;;;5046540;28;20086;-64
2022/07/17 08:48:04;;;;;;;4.05;2.20;;;19.70;99.90;;;;;;5050692;28;20410;-64
2022/07/17 08:50:34;;;;;;;5.35;1.83;;;19.90;99.90;;;;;;5066899;28;20024;-64
2022/07/17 08:53:04;;;;;;;5.60;2.00;;;20.00;99.90;;;;;;5051286;28;20487;-64
2022/07/17 08:55:30;;;;;;;6.82;2.05;;;20.00;99.90;;;;;;5050735;28;20047;-64
2022/07/17 08:57:55;;;;;;;4.20;1.92;;;20.20;99.90;;;;;;5051926;28;20475;-64
2022/07/17 09:00:23;;;;;;;3.28;1.85;;;20.30;99.90;;;;;;5050975;28;20055;-63
2022/07/17 09:02:57;;;;;;;5.78;1.60;;;20.40;99.90;;;;;;5050958;28;20029;-64
2022/07/17 09:05:25;;;;;;;3.92;2.03;;;20.50;99.90;;;;;;5050890;28;20390;-64
2022/07/17 09:07:51;;;;;;;8.43;2.03;;;20.60;99.90;;;;;;5051716;28;20406;-63
2022/07/17 09:10:16;;;;;;;4.78;1.60;;;20.70;99.90;;;;;;5050118;28;20037;-63
2022/07/17 09:12:42;;;;;;;3.65;1.27;;;20.80;99.90;;;;;;5048498;28;20051;-63
2022/07/17 09:15:18;;;;;;;3.03;1.30;;;20.80;99.90;;;;;;5044312;28;20040;-63
2022/07/17 09:17:52;;;;;;;4.97;1.90;;;20.90;99.90;;;;;;5048167;28;20072;-64
2022/07/17 09:20:19;;;;;;;7.43;2.13;;;20.90;99.90;;;;;;5048585;28;20495;-63
2022/07/17 09:22:55;;;;;;;8.88;1.77;;;21.00;99.90;;;;;;5052108;28;20068;-63
2022/07/17 09:25:31;;;;;;;6.05;1.77;;;21.10;99.90;;;;;;5050070;28;20029;-63
2022/07/17 09:28:01;;;;;;;6.53;1.60;;;21.20;99.90;;;;;;5048852;28;20025;-63
2022/07/17 09:30:26;;;;;;;4.28;1.85;;;21.30;99.90;;;;;;5050647;28;20033;-64
2022/07/17 09:32:55;;;;;;;5.05;2.00;;;21.40;99.90;;;;;;5052694;28;20669;-63
2022/07/17 09:35:22;;;;;;;6.75;1.73;;;21.40;99.90;;;;;;5053682;28;20021;-64
2022/07/17 09:37:47;;;;;;;3.00;1.38;;;21.50;99.90;;;;;;5043954;28;20048;-63
2022/07/17 09:42:59;;;;;;;8.35;2.00;;;21.90;99.90;;;;;;5040738;28;20465;-63
2022/07/17 09:45:24;;;;;;;3.25;1.65;;;21.90;99.90;;;;;;5048582;28;20020;-63
2022/07/17 09:47:53;;;;;;;4.20;1.63;;;22.00;99.90;;;;;;5053584;28;20032;-64
2022/07/17 09:50:19;;;;;;;5.07;1.63;;;22.20;99.90;;;;;;5053155;28;20028;-64
2022/07/17 09:52:45;;;;;;;7.70;1.67;;;22.40;99.90;;;;;;5049517;28;20079;-64
2022/07/17 09:55:12;;;;;;;5.57;1.80;;;22.30;99.90;;;;;;5056413;28;20021;-64
2022/07/17 09:57:41;;;;;;;4.03;1.52;;;22.30;99.90;;;;;;5051911;28;20027;-64
2022/07/17 10:00:15;;;;;;;7.03;1.75;;;22.40;99.90;;;;;;5051346;28;20037;-64
2022/07/17 10:02:44;;;;;;;2.85;1.45;;;22.40;99.90;;;;;;5057127;28;20113;-64
2022/07/17 10:05:17;;;;;;;5.22;1.80;;;22.70;99.90;;;;;;5051458;28;20107;-65
2022/07/17 10:07:48;;;;;;;4.32;1.58;;;23.00;99.90;;;;;;5046172;28;20021;-65
2022/07/17 10:10:16;;;;;;;7.63;1.65;;;23.20;99.90;;;;;;5048243;28;20017;-65
2022/07/17 10:12:44;;;;;;;5.72;1.70;;;23.20;99.90;;;;;;5051233;28;20025;-64
2022/07/17 10:15:10;;;;;;;3.88;1.50;;;23.30;99.90;;;;;;5052418;28;20021;-64
2022/07/17 10:17:36;;;;;;;4.40;1.98;;;23.40;99.90;;;;;;5053478;28;20048;-64
2022/07/17 10:20:06;;;;;;;3.10;1.23;;;23.40;99.90;;;;;;5052536;28;20071;-65
2022/07/17 10:22:45;;;;;;;4.93;1.92;;;23.20;99.90;;;;;;5054198;28;20029;-65
2022/07/17 10:25:16;;;;;;;5.65;1.88;;;23.50;99.90;;;;;;5055005;28;20024;-65
2022/07/17 10:27:56;;;;;;;4.25;1.85;;;23.30;99.90;;;;;;5046294;28;20116;-64
2022/07/17 10:30:29;;;;;;;2.85;1.40;;;23.50;99.90;;;;;;5052281;28;20029;-64
2022/07/17 10:33:00;;;;;;;7.53;1.77;;;24.00;99.90;;;;;;5054283;28;20075;-64
2022/07/17 10:35:28;;;;;;;9.25;1.67;;;24.30;99.90;;;;;;5047209;28;20092;-64
2022/07/17 10:37:58;;;;;;;4.25;1.80;;;24.40;99.90;;;;;;5044836;28;20087;-64
2022/07/17 10:40:29;;;;;;;4.50;1.52;;;24.60;99.90;;;;;;5050091;28;20060;-64
2022/07/17 10:43:09;;;;;;;3.97;1.40;;;24.60;99.90;;;;;;5052391;28;20028;-64
2022/07/17 10:45:38;;;;;;;4.75;1.52;;;24.70;99.40;;;;;;5046512;28;20155;-65
2022/07/17 10:48:08;;;;;;;4.18;1.60;;;24.70;99.90;;;;;;5049810;28;20479;-65
2022/07/17 10:50:49;;;;;;;4.28;1.10;;;24.80;99.20;;;;;;5051312;28;20025;-64
2022/07/17 10:53:24;;;;;;;4.40;1.48;;;24.80;98.40;;;;;;5052377;28;20021;-64
2022/07/17 10:55:52;;;;;;;5.25;1.23;;;24.70;96.70;;;;;;5050750;28;20025;-64
2022/07/17 10:58:20;;;;;;;4.15;1.52;;;24.80;96.20;;;;;;5048078;28;20057;-65
2022/07/17 11:01:04;;;;;;;3.47;1.70;;;25.00;99.90;;;;;;5056643;28;20910;-65
2022/07/17 11:03:35;;;;;;;9.65;1.35;;;25.20;95.80;;;;;;5075648;22;20025;-58
2022/07/17 11:06:15;;;;;;;2.10;1.10;;;25.50;95.40;;;;;;5042560;28;20033;-58
2022/07/17 11:08:49;;;;;;;2.67;1.38;;;25.40;93.60;;;;;;5048383;28;20078;-60
2022/07/17 11:11:16;;;;;;;2.70;1.20;;;25.50;95.90;;;;;;5041980;28;20025;-58
2022/07/17 11:13:42;;;;;;;7.25;1.70;;;25.80;96.60;;;;;;5045564;28;20429;-58
2022/07/17 11:16:08;;;;;;;3.20;1.30;;;26.00;95.60;;;;;;5047880;28;20021;-58
2022/07/17 11:18:34;;;;;;;10.70;1.60;;;25.80;93.20;;;;;;5047831;28;20025;-58
2022/07/17 11:21:01;;;;;;;7.45;1.50;;;25.90;93.20;;;;;;5046592;28;20503;-58
2022/07/17 11:23:33;;;;;;;4.78;1.48;;;25.90;94.80;;;;;;5046530;28;20025;-60
2022/07/17 11:26:06;;;;;;;2.78;1.40;;;26.10;92.90;;;;;;5042665;28;20483;-58
2022/07/17 11:28:44;;;;;;;1.63;1.02;;;26.30;92.70;;;;;;5042549;28;20490;-58
2022/07/17 11:31:20;;;;;;;2.33;1.08;;;26.50;92.90;;;;;;5045134;28;20507;-57
2022/07/17 11:33:51;;;;;;;3.08;1.17;;;26.90;91.90;;;;;;5048591;28;20024;-58
2022/07/17 11:36:37;;;;;;;4.50;1.23;;;27.30;90.70;;;;;;5045693;28;20039;-59
2022/07/17 11:39:04;;;;;;;7.53;1.48;;;27.00;90.00;;;;;;5048863;28;20447;-58
2022/07/17 11:41:52;;;;;;;8.38;1.50;;;26.90;90.60;;;;;;5047338;28;20021;-58
2022/07/17 11:44:21;;;;;;;2.55;1.08;;;26.80;89.50;;;;;;5046862;28;20033;-58
2022/07/17 11:46:49;;;;;;;4.03;1.60;;;27.10;87.30;;;;;;5045134;28;20039;-58
2022/07/17 11:49:32;;;;;;;4.03;1.60;;;27.10;86.30;;;;;;5046138;28;20790;-58
2022/07/17 11:52:06;;;;;;;3.97;1.38;;;27.30;87.50;;;;;;5047635;28;20022;-58
2022/07/17 11:54:31;;;;;;;3.08;1.38;;;27.40;85.70;;;;;;5048020;28;20379;-58
2022/07/17 11:56:58;;;;;;;2.58;1.20;;;27.20;85.80;;;;;;5049511;28;20123;-59
2022/07/17 11:59:32;;;;;;;4.28;1.13;;;27.10;87.90;;;;;;5043366;28;20029;-59
2022/07/17 12:02:07;;;;;;;5.25;1.55;;;27.20;85.30;;;;;;5041387;28;20033;-60
2022/07/17 12:04:33;;;;;;;3.83;1.15;;;27.40;85.40;;;;;;5044568;28;20549;-58
2022/07/17 12:07:00;;;;;;;2.50;1.17;;;27.90;84.70;;;;;;5044483;28;20024;-60
2022/07/17 12:09:35;;;;;;;6.57;1.30;;;28.10;82.10;;;;;;5045569;28;20029;-58
2022/07/17 12:12:01;;;;;;;2.95;1.40;;;28.10;81.30;;;;;;5049033;28;20457;-60
2022/07/17 12:14:27;;;;;;;2.90;1.33;;;27.70;81.50;;;;;;5047482;28;20025;-58
2022/07/17 12:16:57;;;;;;;6.05;1.35;;;27.80;82.00;;;;;;5044741;28;20467;-59
2022/07/17 12:19:24;;;;;;;4.32;1.40;;;28.00;80.40;;;;;;5047081;28;20971;-59
2022/07/17 12:22:02;;;;;;;3.67;1.25;;;28.00;80.20;;;;;;5045213;28;20499;-59
2022/07/17 12:24:33;;;;;;;3.28;1.10;;;27.80;81.70;;;;;;5047017;28;20113;-58
2022/07/17 12:27:01;;;;;;;2.50;1.00;;;28.00;79.10;;;;;;5046441;28;20029;-60
2022/07/17 12:29:28;;;;;;;3.63;1.27;;;27.00;78.90;;;;;;5046671;28;20028;-57
2022/07/17 12:32:17;;;;;;;4.43;1.25;;;27.30;82.00;;;;;;5045093;28;20086;-58
2022/07/17 12:34:48;;;;;;;4.00;1.10;;;27.60;82.00;;;;;;5026402;28;20025;-58
2022/07/17 12:37:19;;;;;;;7.15;1.40;;;27.90;82.20;;;;;;5060312;28;20040;-58
2022/07/17 12:39:45;;;;;;;9.75;1.55;;;28.30;80.50;;;;;;5047776;28;20498;-59
2022/07/17 12:42:11;;;;;;;2.83;1.27;;;28.00;78.80;;;;;;5045631;28;20086;-60
2022/07/17 12:44:37;;;;;;;2.25;1.40;;;28.10;78.40;;;;;;5045943;28;20151;-59
2022/07/17 12:47:04;;;;;;;5.28;1.33;;;28.00;78.90;;;;;;5036618;28;20063;-60
2022/07/17 12:49:30;;;;;;;3.28;1.23;;;28.10;82.80;;;;;;5039242;28;20036;-59